createdAt,value
2018-05-31T00:01:06.597Z,6.60
2018-05-31T00:05:59.964Z,6.20
2018-05-31T00:10:54.110Z,6.07
2018-05-31T00:15:47.504Z,5.90
2018-05-31T00:20:40.881Z,5.40
2018-05-31T00:25:34.229Z,6.20
2018-05-31T00:30:29.631Z,6.37
2018-05-31T00:40:45.239Z,5.87
2018-05-31T00:45:38.573Z,5.63
2018-05-31T00:50:31.922Z,5.77
2018-05-31T01:00:47.289Z,6.60
2018-05-31T01:05:40.661Z,5.83
2018-05-31T01:10:34.091Z,5.40
2018-05-31T01:15:28.296Z,5.57
2018-05-31T01:20:21.686Z,5.53
2018-05-31T01:25:15.049Z,5.37
2018-05-31T01:30:08.414Z,5.90
2018-05-31T01:35:02.674Z,6.20
2018-05-31T01:39:56.061Z,6.27
2018-05-31T01:44:49.371Z,5.10
2018-05-31T01:49:43.461Z,5.47
2018-05-31T01:54:36.802Z,5.30
2018-05-31T01:59:30.346Z,5.77
2018-05-31T02:04:23.728Z,4.70
2018-05-31T02:09:17.068Z,5.30
2018-05-31T02:14:11.143Z,4.87
2018-05-31T02:19:04.968Z,4.97
2018-05-31T02:23:58.309Z,4.57
2018-05-31T02:28:51.690Z,5.17
2018-05-31T02:33:45.017Z,4.70
2018-05-31T02:38:38.361Z,4.43
2018-05-31T02:43:31.712Z,4.97
2018-05-31T02:48:25.114Z,4.47
2018-05-31T02:53:18.430Z,5.00
2018-05-31T02:58:11.789Z,4.80
2018-05-31T03:03:05.222Z,5.00
2018-05-31T03:07:58.637Z,4.63
2018-05-31T03:12:52.531Z,4.47
2018-05-31T03:17:45.968Z,5.00
2018-05-31T03:22:39.330Z,5.47
2018-05-31T03:27:32.741Z,6.17
2018-05-31T03:32:26.083Z,6.80
2018-05-31T03:37:19.480Z,7.20
2018-05-31T03:42:12.819Z,8.03
2018-05-31T03:47:06.920Z,7.80
2018-05-31T03:52:00.304Z,7.73
2018-05-31T03:56:54.509Z,9.37
2018-05-31T04:01:47.916Z,8.93
2018-05-31T04:06:41.372Z,8.73
2018-05-31T04:11:34.737Z,7.93
2018-05-31T04:16:29.911Z,8.30
2018-05-31T04:21:23.293Z,7.33
2018-05-31T04:26:16.692Z,8.20
2018-05-31T04:31:10.082Z,8.37
2018-05-31T04:36:08.862Z,7.67
2018-05-31T04:41:02.275Z,8.53
2018-05-31T04:45:56.389Z,8.60
2018-05-31T04:50:50.460Z,7.10
2018-05-31T04:55:43.861Z,7.70
2018-05-31T05:00:41.050Z,7.50
2018-05-31T05:05:34.421Z,8.50
2018-05-31T05:10:28.872Z,7.73
2018-05-31T05:15:22.203Z,7.63
2018-05-31T05:20:18.854Z,8.50
2018-05-31T05:25:12.215Z,7.00
2018-05-31T05:30:06.361Z,8.03
2018-05-31T05:34:59.742Z,7.37
2018-05-31T05:39:53.147Z,7.50
2018-05-31T05:44:46.529Z,6.53
2018-05-31T05:49:39.959Z,7.37
2018-05-31T05:54:33.392Z,7.00
2018-05-31T05:59:27.073Z,8.90
2018-05-31T06:04:21.875Z,8.67
2018-05-31T06:09:15.241Z,9.00
2018-05-31T06:14:08.738Z,8.30
2018-05-31T06:19:02.337Z,9.17
2018-05-31T06:23:58.159Z,6.77
2018-05-31T06:28:53.994Z,7.77
2018-05-31T06:33:47.417Z,8.20
2018-05-31T06:38:41.795Z,8.60
2018-05-31T06:43:35.131Z,7.60
2018-05-31T06:48:28.664Z,8.50
2018-05-31T06:53:22.011Z,8.17
2018-05-31T06:58:16.086Z,8.90
2018-05-31T07:03:10.369Z,8.27
2018-05-31T07:08:03.861Z,7.77
2018-05-31T07:12:57.196Z,8.20
2018-05-31T07:17:50.600Z,7.60
2018-05-31T07:22:44.738Z,8.53
2018-05-31T07:27:40.145Z,8.83
2018-05-31T07:32:33.595Z,6.90
2018-05-31T07:37:27.097Z,8.17
2018-05-31T07:42:21.905Z,8.37
2018-05-31T07:47:16.942Z,6.73
2018-05-31T07:52:11.738Z,8.40
2018-05-31T07:57:06.997Z,7.53
2018-05-31T08:02:00.585Z,7.93
2018-05-31T08:12:07.522Z,8.33
2018-05-31T08:17:01.040Z,7.70
2018-05-31T08:21:54.410Z,8.13
2018-05-31T08:26:47.832Z,8.10
2018-05-31T08:31:42.479Z,7.37
2018-05-31T08:36:36.582Z,8.00
2018-05-31T08:41:29.954Z,7.97
2018-05-31T08:52:11.135Z,8.60
2018-05-31T08:57:05.737Z,9.27
2018-05-31T09:01:59.251Z,9.45
2018-05-31T09:06:52.700Z,9.00
2018-05-31T09:11:46.260Z,8.82
2018-05-31T09:16:39.861Z,9.57
2018-05-31T09:21:34.770Z,9.18
2018-05-31T09:26:28.245Z,9.38
2018-05-31T09:31:23.245Z,9.60
2018-05-31T09:41:33.595Z,8.10
2018-05-31T09:46:30.887Z,8.63
2018-05-31T09:51:24.543Z,8.10
2018-05-31T09:56:18.889Z,8.43
2018-05-31T10:01:12.433Z,8.27
2018-05-31T10:06:07.232Z,7.40
2018-05-31T10:11:01.154Z,6.93
2018-05-31T10:15:54.629Z,6.78
2018-05-31T10:20:48.798Z,7.22
2018-05-31T10:31:07.457Z,6.03
2018-05-31T10:36:00.943Z,6.10
2018-05-31T10:40:54.381Z,5.45
2018-05-31T10:45:47.964Z,4.93
2018-05-31T10:50:43.894Z,5.28
2018-05-31T10:55:37.204Z,4.75
2018-05-31T11:00:31.881Z,4.43
2018-05-31T11:05:25.224Z,4.35
2018-05-31T11:10:18.545Z,4.15
2018-05-31T11:20:33.124Z,3.08
2018-05-31T11:25:26.550Z,3.08
2018-05-31T11:30:20.646Z,3.70
2018-05-31T11:35:13.997Z,3.80
2018-05-31T11:40:08.360Z,3.58
2018-05-31T11:45:01.805Z,3.53
2018-05-31T11:49:56.340Z,3.72
2018-05-31T11:54:50.217Z,3.65
2018-05-31T11:59:45.216Z,3.70
2018-05-31T12:04:39.121Z,3.70
2018-05-31T12:09:33.472Z,3.70
2018-05-31T12:14:27.211Z,3.70
2018-05-31T12:19:20.675Z,3.45
2018-05-31T12:24:13.985Z,3.47
2018-05-31T12:29:07.374Z,3.50
2018-05-31T12:34:00.676Z,3.20
2018-05-31T12:38:53.972Z,3.33
2018-05-31T12:43:47.303Z,4.50
2018-05-31T12:48:40.603Z,3.67
2018-05-31T12:53:34.690Z,3.75
2018-05-31T12:58:28.747Z,3.90
2018-05-31T13:03:22.078Z,3.70
2018-05-31T13:08:17.250Z,4.00
2018-05-31T13:13:10.555Z,3.87
2018-05-31T13:18:06.880Z,3.80
2018-05-31T13:23:00.170Z,4.00
2018-05-31T13:27:53.531Z,3.45
2018-05-31T13:32:46.823Z,3.80
2018-05-31T13:37:40.137Z,4.22
2018-05-31T13:42:34.283Z,3.80
2018-05-31T13:47:27.608Z,3.90
2018-05-31T13:52:21.669Z,3.83
2018-05-31T13:57:15.015Z,3.97
2018-05-31T14:02:08.312Z,3.70
2018-05-31T14:07:01.633Z,3.60
2018-05-31T14:11:55.705Z,3.78
2018-05-31T14:16:49.003Z,3.72
2018-05-31T14:21:42.315Z,3.62
2018-05-31T14:26:35.611Z,3.72
2018-05-31T14:31:28.914Z,3.85
2018-05-31T14:36:22.214Z,3.90
2018-05-31T14:41:16.319Z,3.90
2018-05-31T14:46:09.602Z,3.72
2018-05-31T14:51:02.908Z,3.83
2018-05-31T14:55:56.215Z,3.83
2018-05-31T15:00:49.589Z,3.50
2018-05-31T15:05:42.907Z,4.07
2018-05-31T15:10:36.195Z,4.15
2018-05-31T15:15:29.514Z,3.87
2018-05-31T15:20:22.823Z,3.80
2018-05-31T15:25:16.967Z,4.05
2018-05-31T15:30:10.294Z,4.00
2018-05-31T15:35:04.391Z,4.05
2018-05-31T15:39:58.451Z,4.28
2018-05-31T15:44:51.801Z,3.80
2018-05-31T15:49:45.171Z,3.85
2018-05-31T15:54:38.491Z,4.10
2018-05-31T15:59:31.816Z,4.15
2018-05-31T16:04:25.104Z,4.18
2018-05-31T16:09:19.174Z,3.92
2018-05-31T16:14:13.226Z,3.85
2018-05-31T16:19:06.519Z,4.53
2018-05-31T16:24:01.435Z,5.00
2018-05-31T16:28:54.749Z,4.75
2018-05-31T16:33:48.063Z,4.65
2018-05-31T16:38:41.359Z,4.32
2018-05-31T16:43:34.657Z,4.60
2018-05-31T16:48:28.748Z,5.15
2018-05-31T16:53:22.837Z,5.37
2018-05-31T16:58:16.193Z,5.80
2018-05-31T17:03:09.576Z,5.43
2018-05-31T17:08:02.950Z,5.35
2018-05-31T17:12:56.263Z,5.12
2018-05-31T17:17:50.337Z,5.60
2018-05-31T17:22:43.655Z,5.47
2018-05-31T17:27:36.974Z,5.70
2018-05-31T17:32:30.455Z,5.80
2018-05-31T17:37:23.794Z,5.85
2018-05-31T17:42:30.794Z,5.78
2018-05-31T17:47:24.885Z,5.30
2018-05-31T17:52:18.284Z,5.80
2018-05-31T17:57:11.614Z,5.40
2018-05-31T18:02:04.925Z,6.07
2018-05-31T18:06:58.257Z,5.72
2018-05-31T18:11:51.572Z,6.28
2018-05-31T18:16:44.859Z,6.25
2018-05-31T18:21:38.162Z,5.68
2018-05-31T18:26:31.469Z,6.70
2018-05-31T18:31:24.783Z,6.95
2018-05-31T18:36:18.082Z,6.62
2018-05-31T18:41:12.925Z,6.85
2018-05-31T18:46:06.236Z,6.72
2018-05-31T18:51:00.437Z,6.53
2018-05-31T18:55:53.732Z,6.12
2018-05-31T19:00:47.876Z,6.30
2018-05-31T19:05:45.367Z,6.28
2018-05-31T19:10:39.565Z,6.30
2018-05-31T19:15:32.914Z,6.87
2018-05-31T19:20:27.126Z,6.07
2018-05-31T19:25:20.452Z,6.47
2018-05-31T19:30:19.294Z,7.10
2018-05-31T19:35:18.010Z,7.33
2018-05-31T19:40:11.339Z,4.67
2018-05-31T19:45:04.645Z,3.90
2018-05-31T19:49:57.934Z,3.57
2018-05-31T19:54:51.998Z,3.30
2018-05-31T19:59:50.823Z,3.27
2018-05-31T20:04:44.125Z,2.60
2018-05-31T20:09:37.432Z,2.70
2018-05-31T20:14:31.930Z,2.40
2018-05-31T20:19:26.075Z,2.40
2018-05-31T20:24:20.422Z,2.30
2018-05-31T20:29:14.607Z,2.43
2018-05-31T20:34:07.928Z,2.20
2018-05-31T20:39:01.225Z,2.80
2018-05-31T20:43:54.514Z,2.40
2018-05-31T20:48:47.882Z,3.17
2018-05-31T20:53:41.210Z,3.47
2018-05-31T20:58:35.333Z,3.30
2018-05-31T21:03:28.640Z,3.20
2018-05-31T21:08:21.959Z,3.07
2018-05-31T21:13:15.294Z,3.50
2018-05-31T21:18:08.588Z,3.50
2018-05-31T21:23:01.912Z,3.80
2018-05-31T21:27:56.007Z,4.03
2018-05-31T21:32:50.186Z,4.10
2018-05-31T21:37:44.326Z,5.63
2018-05-31T21:42:37.761Z,5.13
2018-05-31T21:47:31.122Z,4.93
2018-05-31T21:52:24.576Z,4.40
2018-05-31T21:57:17.936Z,5.57
2018-05-31T22:02:11.417Z,6.37
2018-05-31T22:07:04.758Z,5.80
2018-05-31T22:11:58.157Z,6.40
2018-05-31T22:16:52.279Z,6.03
2018-05-31T22:21:45.594Z,5.53
2018-05-31T22:26:39.787Z,5.40
2018-05-31T22:31:33.135Z,5.90
2018-05-31T22:36:26.488Z,4.93
2018-05-31T22:41:19.791Z,4.60
2018-05-31T22:46:13.110Z,4.40
2018-05-31T22:51:06.429Z,4.20
2018-05-31T22:55:59.752Z,3.97
2018-05-31T23:00:53.095Z,4.00
2018-05-31T23:05:46.395Z,3.90
2018-05-31T23:10:39.706Z,3.93
2018-05-31T23:15:32.992Z,3.70
2018-05-31T23:20:27.048Z,3.37
2018-05-31T23:25:20.355Z,3.40
2018-05-31T23:30:14.462Z,3.80
2018-05-31T23:35:07.754Z,3.77
2018-05-31T23:40:01.035Z,3.40
2018-05-31T23:44:54.330Z,3.50
2018-05-31T23:49:47.625Z,3.67
2018-05-31T23:54:40.954Z,3.60
2018-05-31T23:59:34.990Z,3.47
